Time;durP1;ratioP1;P1;durP2;ratioP2;P2;SDS_P1;SDS_P2;PMS_P1;PMS_P2;Temp;Humidity;BMP_temperature;BMP_pressure;BME280_temperature;BME280_humidity;BME280_pressure;Samples;Min_cycle;Max_cycle;Signal;HPM_P1;HPM_P2
2022/07/24 00:01:32;;;;;;;11.98;3.90;;;;;;;16.97;83.68;100519.47;4885618;29;20041;-74
2022/07/24 00:03:57;;;;;;;7.38;2.92;;;;;;;16.95;83.78;100513.47;4896517;29;20025;-77
2022/07/24 00:06:23;;;;;;;8.32;3.22;;;;;;;16.90;83.79;100501.38;4890588;29;20131;-74
2022/07/24 00:08:49;;;;;;;8.00;2.45;;;;;;;16.92;83.92;100514.88;4885648;29;20037;-75
2022/07/24 00:11:14;;;;;;;7.25;2.58;;;;;;;16.90;84.03;100509.66;4903004;29;20069;-74
2022/07/24 00:13:40;;;;;;;6.53;2.88;;;;;;;16.88;83.51;100502.81;4873707;29;20036;-75
2022/07/24 00:16:05;;;;;;;7.10;3.00;;;;;;;16.92;83.60;100507.44;4879302;29;20388;-74
2022/07/24 00:18:31;;;;;;;6.90;2.75;;;;;;;16.95;82.96;100497.69;4874333;29;20101;-73
2022/07/24 00:20:56;;;;;;;12.32;2.63;;;;;;;16.97;83.21;100506.50;4853144;29;20025;-75
2022/07/24 00:23:25;;;;;;;12.55;3.53;;;;;;;17.00;83.12;100502.31;4883767;29;20036;-76
2022/07/24 00:25:51;;;;;;;10.13;2.92;;;;;;;16.97;83.19;100506.50;4889322;29;20057;-75
2022/07/24 00:28:17;;;;;;;5.35;2.65;;;;;;;16.99;83.23;100503.44;4895548;29;20526;-74
2022/07/24 00:30:43;;;;;;;4.45;2.58;;;;;;;17.00;83.07;100510.59;4877995;29;20036;-75
2022/07/24 00:33:08;;;;;;;7.57;2.40;;;;;;;17.01;83.12;100517.75;4877104;29;20048;-74
2022/07/24 00:35:34;;;;;;;6.43;2.30;;;;;;;17.01;83.16;100515.81;4877275;29;20029;-75
2022/07/24 00:38:00;;;;;;;10.00;2.88;;;;;;;17.03;83.00;100510.00;4888657;29;20040;-75
2022/07/24 00:40:26;;;;;;;3.38;2.13;;;;;;;17.02;83.12;100497.28;4893923;29;20031;-75
2022/07/24 00:42:52;;;;;;;6.45;2.67;;;;;;;16.95;82.73;100502.41;4867157;29;20145;-75
2022/07/24 00:45:17;;;;;;;6.07;2.45;;;;;;;16.99;83.01;100495.16;4860016;29;20060;-74
2022/07/24 00:47:43;;;;;;;6.65;2.75;;;;;;;16.96;82.68;100471.72;4895571;29;20146;-74
2022/07/24 00:50:09;;;;;;;7.13;2.55;;;;;;;17.00;82.82;100488.50;4884489;29;20040;-74
2022/07/24 00:52:35;;;;;;;9.45;3.03;;;;;;;17.00;82.74;100478.28;4869079;29;20047;-74
2022/07/24 00:55:01;;;;;;;4.72;2.53;;;;;;;17.05;82.62;100488.41;4877674;29;20049;-75
2022/07/24 00:57:26;;;;;;;6.07;2.83;;;;;;;17.07;82.62;100489.72;4893515;29;20119;-74
2022/07/24 00:59:52;;;;;;;14.20;2.80;;;;;;;17.09;82.53;100481.13;4866707;29;20100;-75
2022/07/24 01:02:17;;;;;;;7.38;2.33;;;;;;;17.08;82.55;100482.25;4870623;29;20029;-74
2022/07/24 01:04:43;;;;;;;4.80;1.95;;;;;;;17.08;82.54;100485.00;4877786;29;20032;-76
2022/07/24 01:07:08;;;;;;;5.68;2.05;;;;;;;17.05;82.48;100480.09;4871544;29;20025;-76
2022/07/24 01:09:35;;;;;;;9.70;2.92;;;;;;;17.06;82.38;100476.22;4889927;29;20033;-75
2022/07/24 01:12:02;;;;;;;11.40;2.42;;;;;;;17.06;82.56;100467.94;4862208;29;20119;-72
2022/07/24 01:14:27;;;;;;;7.45;2.22;;;;;;;17.07;82.26;100472.34;4883163;29;20025;-74
2022/07/24 01:16:53;;;;;;;7.38;3.10;;;;;;;17.07;82.40;100467.63;4873042;29;20036;-73
2022/07/24 01:19:18;;;;;;;11.73;2.15;;;;;;;17.04;82.29;100483.97;4881152;29;20123;-74
2022/07/24 01:21:49;;;;;;;4.53;2.33;;;;;;;17.01;82.43;100462.50;4871246;29;20029;-74
2022/07/24 01:24:15;;;;;;;2.92;2.13;;;;;;;16.97;82.56;100461.47;4879018;29;20108;-75
2022/07/24 01:26:40;;;;;;;9.60;2.60;;;;;;;16.97;82.62;100467.00;4884982;29;20024;-75
2022/07/24 01:29:07;;;;;;;9.38;2.63;;;;;;;16.94;82.73;100462.94;4884528;29;20039;-75
2022/07/24 01:31:33;;;;;;;6.75;3.00;;;;;;;16.92;82.74;100449.44;4882917;29;20040;-73
2022/07/24 01:33:58;;;;;;;8.93;3.00;;;;;;;16.90;83.12;100461.91;4867993;29;20029;-74
2022/07/24 01:36:24;;;;;;;7.65;3.28;;;;;;;16.85;83.36;100453.69;4883283;29;20077;-74
2022/07/24 01:38:49;;;;;;;4.68;3.00;;;;;;;16.78;83.74;100454.13;4898900;29;20051;-74
2022/07/24 01:41:15;;;;;;;8.43;3.42;;;;;;;16.77;83.81;100452.47;4864674;29;20057;-75
2022/07/24 01:43:40;;;;;;;5.05;3.05;;;;;;;16.74;83.90;100461.38;4868999;29;20353;-73
2022/07/24 01:46:06;;;;;;;6.45;3.03;;;;;;;16.72;83.99;100447.06;4877462;29;20060;-75
2022/07/24 01:48:31;;;;;;;6.65;3.08;;;;;;;16.72;83.83;100460.88;4899975;29;20029;-73
2022/07/24 01:50:57;;;;;;;15.48;3.35;;;;;;;16.72;83.80;100455.34;4875360;29;20176;-74
2022/07/24 01:53:23;;;;;;;5.28;2.90;;;;;;;16.71;84.16;100456.47;4867831;29;20483;-74
2022/07/24 01:55:52;;;;;;;6.32;3.22;;;;;;;16.70;84.18;100441.81;4876982;29;20074;-74
2022/07/24 01:58:18;;;;;;;8.90;2.78;;;;;;;16.70;84.26;100441.00;4886934;29;20028;-74
2022/07/24 02:00:43;;;;;;;3.90;2.75;;;;;;;16.70;84.19;100441.00;4881785;29;20089;-74
2022/07/24 02:03:09;;;;;;;6.88;3.55;;;;;;;16.70;84.10;100439.06;4897615;29;20049;-74
2022/07/24 02:05:34;;;;;;;3.45;2.35;;;;;;;16.72;84.24;100428.53;4882242;29;20056;-74
2022/07/24 02:08:00;;;;;;;3.38;2.20;;;;;;;16.79;83.70;100439.16;4870501;29;20060;-73
2022/07/24 02:10:27;;;;;;;6.25;2.78;;;;;;;16.77;83.59;100438.66;4897181;29;20060;-74
2022/07/24 02:12:54;;;;;;;3.58;2.00;;;;;;;16.76;83.74;100439.78;4874265;29;20021;-73
2022/07/24 02:15:19;;;;;;;4.38;2.55;;;;;;;16.77;83.68;100440.63;4878273;29;20052;-74
2022/07/24 02:17:53;;;;;;;6.53;2.78;;;;;;;16.78;83.48;100443.06;4893135;29;20025;-75
2022/07/24 02:20:18;;;;;;;7.38;2.53;;;;;;;16.79;83.47;100439.16;4882888;29;20044;-73
2022/07/24 02:22:44;;;;;;;6.75;2.20;;;;;;;16.79;83.51;100452.97;4879750;29;20040;-74
2022/07/24 02:25:11;;;;;;;6.90;2.95;;;;;;;16.77;83.26;100455.22;4882016;29;20507;-76
2022/07/24 02:27:37;;;;;;;9.15;2.10;;;;;;;16.73;83.19;100434.88;4901164;29;20040;-74
2022/07/24 02:30:05;;;;;;;5.57;2.13;;;;;;;16.69;83.78;100436.59;4898998;29;20454;-73
2022/07/24 02:32:31;;;;;;;5.22;2.17;;;;;;;16.64;84.10;100436.72;4856810;29;20037;-74
2022/07/24 02:34:56;;;;;;;5.00;2.40;;;;;;;16.65;83.85;100449.41;4884757;29;20043;-74
2022/07/24 02:37:21;;;;;;;7.47;2.28;;;;;;;16.60;84.53;100435.69;4881121;29;20033;-74
2022/07/24 02:39:47;;;;;;;6.10;2.90;;;;;;;16.58;84.38;100438.75;4891535;29;20020;-75
2022/07/24 02:42:12;;;;;;;5.00;2.20;;;;;;;16.56;84.56;100441.84;4893539;29;20037;-75
2022/07/24 02:44:38;;;;;;;5.60;2.28;;;;;;;16.61;84.69;100438.16;4878163;29;20093;-75
2022/07/24 02:47:03;;;;;;;6.25;2.20;;;;;;;16.66;84.50;100451.03;4866641;29;20040;-76
2022/07/24 02:49:29;;;;;;;8.85;2.08;;;;;;;16.67;84.34;100447.16;4899883;29;20036;-76
2022/07/24 02:51:54;;;;;;;6.28;2.35;;;;;;;16.66;84.48;100440.81;4885448;29;20040;-75
2022/07/24 02:54:20;;;;;;;7.22;2.20;;;;;;;16.66;84.23;100456.56;4865353;29;20044;-75
2022/07/24 02:56:45;;;;;;;4.03;2.10;;;;;;;16.66;84.51;100448.25;4867486;29;20064;-75
2022/07/24 02:59:12;;;;;;;8.05;2.72;;;;;;;16.67;84.45;100436.09;4859811;29;20033;-74
2022/07/24 03:01:37;;;;;;;7.25;2.10;;;;;;;16.65;84.61;100444.69;4886226;29;20115;-75
2022/07/24 03:04:03;;;;;;;6.97;2.42;;;;;;;16.67;84.76;100442.44;4881362;29;20055;-74
2022/07/24 03:06:28;;;;;;;7.22;2.50;;;;;;;16.67;84.84;100439.69;4884650;29;20111;-73
2022/07/24 03:08:53;;;;;;;5.03;2.08;;;;;;;16.70;84.86;100443.78;4895335;29;20115;-75
2022/07/24 03:11:19;;;;;;;5.13;1.85;;;;;;;16.69;84.83;100431.91;4854414;29;20532;-74
2022/07/24 03:13:44;;;;;;;10.65;2.50;;;;;;;16.71;84.74;100431.63;4869189;29;20543;-75
2022/07/24 03:16:10;;;;;;;8.75;2.67;;;;;;;16.73;84.71;100432.94;4878072;29;20033;-74
2022/07/24 03:18:35;;;;;;;4.25;2.05;;;;;;;16.72;84.57;100434.06;4883559;29;20040;-74
2022/07/24 03:21:01;;;;;;;4.38;2.05;;;;;;;16.75;84.57;100438.97;4874869;29;20056;-74
2022/07/24 03:23:26;;;;;;;8.20;2.17;;;;;;;16.69;84.56;100431.09;4868836;29;20056;-74
2022/07/24 03:25:52;;;;;;;3.28;1.90;;;;;;;16.71;84.69;100437.13;4873207;29;20113;-75
2022/07/24 03:28:18;;;;;;;10.00;2.47;;;;;;;16.75;84.51;100443.69;4869183;29;20028;-74
2022/07/24 03:30:44;;;;;;;10.68;2.53;;;;;;;16.73;84.37;100445.91;4879020;29;20030;-74
2022/07/24 03:33:09;;;;;;;6.38;2.63;;;;;;;16.76;84.62;100431.50;4881756;29;20346;-74
2022/07/24 03:35:34;;;;;;;5.90;2.03;;;;;;;16.79;84.25;100430.06;4887492;29;20088;-75
2022/07/24 03:38:00;;;;;;;4.68;1.80;;;;;;;16.78;84.31;100417.38;4873842;29;20033;-75
2022/07/24 03:40:25;;;;;;;5.03;1.98;;;;;;;16.83;84.10;100418.09;4884767;29;20032;-75
2022/07/24 03:42:51;;;;;;;5.35;2.22;;;;;;;16.83;84.20;100420.84;4874847;29;20066;-75
2022/07/24 03:45:16;;;;;;;5.80;1.90;;;;;;;16.80;84.07;100418.72;4885513;29;20043;-76
2022/07/24 03:47:43;;;;;;;5.93;2.20;;;;;;;16.80;84.27;100417.91;4875472;29;20622;-76
2022/07/24 03:50:08;;;;;;;5.38;1.98;;;;;;;16.79;84.28;100422.59;4889059;29;20033;-75
2022/07/24 03:52:34;;;;;;;4.53;2.10;;;;;;;16.78;84.31;100407.16;4884507;29;20422;-75
2022/07/24 03:54:59;;;;;;;3.92;2.13;;;;;;;16.70;84.80;100402.34;4884485;29;20092;-74
2022/07/24 03:57:25;;;;;;;6.55;2.30;;;;;;;16.73;84.77;100407.25;4864015;29;20048;-74
2022/07/24 03:59:50;;;;;;;4.85;2.13;;;;;;;16.75;84.82;100411.34;4883239;29;20024;-74
2022/07/24 04:02:16;;;;;;;7.65;2.45;;;;;;;16.80;84.84;100412.38;4862143;29;20051;-75
2022/07/24 04:04:41;;;;;;;4.80;2.25;;;;;;;16.76;84.95;100406.66;4868061;29;20108;-74
2022/07/24 04:07:07;;;;;;;9.95;2.38;;;;;;;16.78;85.12;100417.38;4852662;29;20036;-74
2022/07/24 04:09:32;;;;;;;8.20;2.60;;;;;;;16.77;85.23;100405.53;4874045;29;20032;-74
2022/07/24 04:11:58;;;;;;;9.63;2.20;;;;;;;16.73;85.41;100397.06;4898261;29;20028;-74
2022/07/24 04:14:24;;;;;;;8.35;2.53;;;;;;;16.75;85.50;100402.28;4892801;29;20045;-75
2022/07/24 04:16:50;;;;;;;5.25;2.42;;;;;;;16.77;85.79;100397.25;4882105;29;20035;-75
2022/07/24 04:19:16;;;;;;;8.00;2.97;;;;;;;16.74;86.08;100392.34;4860926;29;20049;-73
2022/07/24 04:21:41;;;;;;;5.85;2.33;;;;;;;16.74;86.18;100400.63;4861537;29;20036;-73
2022/07/24 04:24:07;;;;;;;4.85;2.50;;;;;;;16.73;86.27;100393.47;4894097;29;20133;-74
2022/07/24 04:26:32;;;;;;;7.47;2.40;;;;;;;16.72;86.68;100400.13;4882702;29;20075;-74
2022/07/24 04:28:58;;;;;;;7.35;2.47;;;;;;;16.65;87.20;100391.44;4893547;29;20025;-74
2022/07/24 04:31:23;;;;;;;13.50;3.22;;;;;;;16.61;87.35;100391.22;4849477;29;20504;-74
2022/07/24 04:33:49;;;;;;;6.65;2.28;;;;;;;16.64;87.37;100387.84;4890494;29;20444;-73
2022/07/24 04:36:14;;;;;;;5.00;2.33;;;;;;;16.72;87.42;100383.56;4876500;29;20444;-73
2022/07/24 04:38:40;;;;;;;7.50;2.75;;;;;;;16.70;87.53;100388.56;4886059;29;20060;-74
2022/07/24 04:41:05;;;;;;;5.88;2.30;;;;;;;16.66;87.80;100379.25;4885822;29;20017;-74
2022/07/24 04:43:30;;;;;;;9.15;2.80;;;;;;;16.67;87.71;100375.38;4891694;29;20044;-73
2022/07/24 04:45:56;;;;;;;9.32;2.88;;;;;;;16.64;88.19;100370.47;4868447;29;20441;-74
2022/07/24 04:48:21;;;;;;;10.23;3.00;;;;;;;16.64;88.04;100370.47;4880346;29;21250;-74
2022/07/24 04:50:47;;;;;;;14.88;3.10;;;;;;;16.66;88.43;100373.72;4878736;29;20480;-75
2022/07/24 04:53:12;;;;;;;6.30;2.58;;;;;;;16.65;88.31;100363.84;4885660;29;20436;-75
2022/07/24 04:55:38;;;;;;;8.07;2.90;;;;;;;16.71;88.26;100370.88;4884126;29;20060;-75
2022/07/24 04:58:03;;;;;;;6.03;2.28;;;;;;;16.71;88.15;100362.59;4893020;29;20044;-74
2022/07/24 05:00:30;;;;;;;6.97;2.80;;;;;;;16.74;87.98;100350.94;4870271;29;20043;-74
2022/07/24 05:02:56;;;;;;;7.18;2.92;;;;;;;16.76;87.58;100373.50;4861343;29;20059;-75
2022/07/24 05:05:21;;;;;;;8.73;2.50;;;;;;;16.76;87.74;100379.03;4887285;29;20394;-74
2022/07/24 05:07:47;;;;;;;4.75;2.08;;;;;;;16.80;87.25;100374.53;4880342;29;20037;-75
2022/07/24 05:10:12;;;;;;;4.88;1.95;;;;;;;16.80;87.43;100362.69;4884753;29;20465;-74
2022/07/24 05:12:38;;;;;;;7.18;2.47;;;;;;;16.90;87.17;100368.81;4890135;29;20056;-74
2022/07/24 05:15:05;;;;;;;6.00;2.30;;;;;;;16.93;86.57;100357.13;4876148;29;20036;-75
2022/07/24 05:17:31;;;;;;;3.00;1.73;;;;;;;17.00;86.31;100358.69;4881072;29;20024;-75
2022/07/24 05:19:56;;;;;;;5.18;2.30;;;;;;;16.97;86.29;100367.56;4877942;29;20392;-75
2022/07/24 05:22:21;;;;;;;8.23;2.10;;;;;;;17.01;86.01;100363.91;4864290;29;20104;-74
2022/07/24 05:24:47;;;;;;;8.57;2.72;;;;;;;17.07;85.95;100368.16;4873578;29;20036;-76
2022/07/24 05:27:12;;;;;;;5.13;2.17;;;;;;;17.13;85.73;100370.81;4878536;29;20035;-74
2022/07/24 05:29:39;;;;;;;6.03;2.47;;;;;;;17.13;85.53;100377.16;4881907;29;20029;-73
2022/07/24 05:32:04;;;;;;;5.25;2.70;;;;;;;17.11;85.60;100376.63;4881078;29;20054;-75
2022/07/24 05:34:30;;;;;;;9.48;2.85;;;;;;;17.08;85.71;100375.34;4871088;29;20496;-74
2022/07/24 05:36:55;;;;;;;8.55;2.83;;;;;;;17.05;86.15;100380.66;4877147;29;20033;-74
2022/07/24 05:39:21;;;;;;;7.38;2.13;;;;;;;16.98;86.31;100381.09;4871896;29;20124;-74
2022/07/24 05:41:46;;;;;;;7.55;2.28;;;;;;;16.96;86.75;100388.06;4897866;29;20085;-74
2022/07/24 05:44:12;;;;;;;6.38;2.45;;;;;;;16.91;87.08;100383.47;4889398;29;20036;-72
2022/07/24 05:46:37;;;;;;;5.95;1.98;;;;;;;16.93;87.22;100384.75;4860061;29;20029;-74
2022/07/24 05:49:03;;;;;;;9.30;2.53;;;;;;;16.98;87.01;100380.25;4885689;29;20233;-75
2022/07/24 05:51:28;;;;;;;8.65;2.58;;;;;;;16.91;87.21;100387.03;4894862;29;20033;-74
2022/07/24 05:53:53;;;;;;;4.00;2.42;;;;;;;16.86;88.14;100387.09;4902170;29;20373;-76
2022/07/24 05:56:19;;;;;;;8.25;2.72;;;;;;;16.84;88.58;100381.06;4891908;29;20390;-75
2022/07/24 05:58:44;;;;;;;6.18;2.45;;;;;;;16.84;88.52;100386.59;4865310;29;20045;-76
2022/07/24 06:01:10;;;;;;;7.50;2.47;;;;;;;16.83;88.70;100384.16;4875782;29;20029;-76
2022/07/24 06:03:36;;;;;;;9.93;2.17;;;;;;;16.88;88.55;100376.59;4863188;29;20032;-75
2022/07/24 06:06:03;;;;;;;4.35;2.00;;;;;;;16.95;88.41;100380.88;4862328;29;20035;-73
2022/07/24 06:08:29;;;;;;;6.47;2.58;;;;;;;16.99;87.96;100370.84;4890190;29;20037;-75
2022/07/24 06:10:54;;;;;;;5.30;2.28;;;;;;;17.07;87.58;100378.41;4877068;29;20405;-75
2022/07/24 06:13:20;;;;;;;3.42;2.10;;;;;;;17.07;87.68;100367.38;4884464;29;20455;-75
2022/07/24 06:15:45;;;;;;;5.35;2.20;;;;;;;17.09;87.59;100376.16;4873890;29;20621;-76
2022/07/24 06:18:10;;;;;;;9.75;2.42;;;;;;;17.13;87.75;100370.81;4877676;29;20088;-75
2022/07/24 06:20:36;;;;;;;7.80;2.28;;;;;;;17.15;87.39;100369.38;4881021;29;20055;-75
2022/07/24 06:23:01;;;;;;;6.63;2.33;;;;;;;17.21;86.82;100348.78;4886996;29;20028;-74
2022/07/24 06:25:27;;;;;;;6.82;2.58;;;;;;;17.26;86.49;100354.19;4874215;29;20036;-76
2022/07/24 06:27:53;;;;;;;5.75;2.03;;;;;;;17.28;86.41;100357.44;4878493;29;20408;-76
2022/07/24 06:30:24;;;;;;;8.57;2.20;;;;;;;17.30;86.04;100359.91;4896412;29;20039;-75
2022/07/24 06:32:52;;;;;;;3.83;1.77;;;;;;;17.30;86.47;100359.09;4885371;29;20040;-75
2022/07/24 06:35:18;;;;;;;7.35;2.65;;;;;;;17.23;86.94;100360.34;4879817;29;20044;-76
2022/07/24 06:37:43;;;;;;;5.35;1.95;;;;;;;17.18;87.44;100349.41;4894132;29;20059;-74
2022/07/24 06:40:09;;;;;;;9.95;2.33;;;;;;;17.30;87.63;100364.63;4859630;29;20029;-74
2022/07/24 06:42:35;;;;;;;5.18;2.72;;;;;;;17.40;86.56;100354.13;4874653;29;20087;-75
2022/07/24 06:45:01;;;;;;;3.90;1.63;;;;;;;17.50;85.67;100358.59;4889039;29;20032;-75
2022/07/24 06:47:26;;;;;;;6.00;2.35;;;;;;;17.51;85.33;100349.19;4874140;29;20040;-74
2022/07/24 06:49:53;;;;;;;9.38;2.40;;;;;;;17.47;85.54;100358.41;4891920;29;20040;-74
2022/07/24 06:52:19;;;;;;;6.93;1.63;;;;;;;17.52;85.35;100350.81;4896025;29;20115;-75
2022/07/24 06:54:44;;;;;;;3.90;2.20;;;;;;;17.65;85.22;100359.34;4892718;29;20116;-75
2022/07/24 06:57:10;;;;;;;5.75;1.88;;;;;;;17.74;83.75;100335.31;4891803;29;20069;-74
2022/07/24 06:59:35;;;;;;;6.93;1.90;;;;;;;17.81;83.18;100341.22;4872133;29;20500;-74
2022/07/24 07:02:01;;;;;;;5.80;1.75;;;;;;;17.85;82.78;100353.28;4874706;29;20056;-75
2022/07/24 07:04:29;;;;;;;4.43;1.60;;;;;;;17.87;82.58;100348.28;4895864;29;20384;-75
2022/07/24 07:06:55;;;;;;;3.05;1.90;;;;;;;17.94;82.03;100345.88;4859232;29;20047;-75
2022/07/24 07:09:20;;;;;;;4.45;1.42;;;;;;;18.07;81.58;100344.16;4889322;29;20025;-73
2022/07/24 07:11:46;;;;;;;5.57;1.88;;;;;;;18.20;80.55;100347.94;4865037;29;20029;-76
2022/07/24 07:14:11;;;;;;;6.70;2.00;;;;;;;18.28;80.12;100346.34;4891481;29;20033;-73
2022/07/24 07:16:37;;;;;;;3.90;1.67;;;;;;;18.37;79.33;100349.13;4863180;29;20077;-75
2022/07/24 07:19:02;;;;;;;4.10;1.50;;;;;;;18.33;79.52;100346.22;4874523;29;20067;-74
2022/07/24 07:21:28;;;;;;;5.22;1.70;;;;;;;18.33;79.41;100342.63;4897514;29;20029;-74
2022/07/24 07:23:53;;;;;;;2.83;1.33;;;;;;;18.36;79.34;100333.69;4884261;29;20044;-75
2022/07/24 07:26:19;;;;;;;2.85;1.15;;;;;;;18.39;79.52;100335.81;4882415;29;20037;-77
2022/07/24 07:28:47;;;;;;;9.02;1.98;;;;;;;18.44;79.03;100327.34;4882794;29;20025;-75
2022/07/24 07:31:13;;;;;;;5.15;1.90;;;;;;;18.55;79.07;100331.44;4867673;29;20029;-75
2022/07/24 07:33:38;;;;;;;4.68;1.55;;;;;;;18.65;78.31;100336.69;4872899;29;20057;-75
2022/07/24 07:36:04;;;;;;;7.32;1.80;;;;;;;18.64;77.93;100328.69;4887546;29;20783;-75
2022/07/24 07:38:29;;;;;;;5.78;1.95;;;;;;;18.58;78.61;100336.34;4866809;29;20040;-75
2022/07/24 07:40:55;;;;;;;3.55;1.75;;;;;;;18.71;78.03;100333.78;4883407;29;20024;-75
2022/07/24 07:43:20;;;;;;;2.10;1.48;;;;;;;18.82;77.61;100324.00;4863513;29;20352;-75
2022/07/24 07:45:46;;;;;;;4.28;1.60;;;;;;;18.94;77.03;100326.97;4873742;29;20056;-75
2022/07/24 07:48:11;;;;;;;5.30;1.63;;;;;;;18.95;77.23;100334.16;4888369;29;20041;-74
2022/07/24 07:50:37;;;;;;;3.50;1.63;;;;;;;19.09;76.95;100320.13;4891729;29;20102;-73
2022/07/24 07:53:02;;;;;;;4.32;1.30;;;;;;;19.32;75.93;100329.09;4872611;29;20053;-76
2022/07/24 07:55:28;;;;;;;5.35;1.98;;;;;;;19.34;75.38;100332.34;4894251;29;20552;-75
2022/07/24 07:57:53;;;;;;;6.00;1.75;;;;;;;19.45;75.34;100313.44;4882401;29;20064;-76
2022/07/24 08:00:19;;;;;;;10.45;1.73;;;;;;;19.62;74.48;100323.66;4885819;29;20028;-75
2022/07/24 08:02:45;;;;;;;10.02;1.88;;;;;;;19.57;74.49;100326.63;4860867;29;20383;-75
2022/07/24 08:05:11;;;;;;;8.75;1.77;;;;;;;19.53;74.75;100331.19;4860806;29;20044;-76
2022/07/24 08:07:36;;;;;;;4.20;1.30;;;;;;;19.51;74.87;100336.25;4894173;29;20855;-74
2022/07/24 08:10:03;;;;;;;4.32;1.83;;;;;;;19.52;74.85;100338.72;4857194;29;20397;-75
2022/07/24 08:12:29;;;;;;;4.13;1.60;;;;;;;19.38;75.29;100340.00;4885953;29;21558;-75
2022/07/24 08:14:54;;;;;;;6.75;1.40;;;;;;;19.24;75.25;100346.53;4861652;29;20032;-75
2022/07/24 08:17:20;;;;;;;5.75;1.80;;;;;;;19.14;76.11;100341.31;4858960;29;20495;-74
2022/07/24 08:19:46;;;;;;;7.53;1.90;;;;;;;19.02;76.55;100334.47;4880247;29;20033;-76
2022/07/24 08:22:11;;;;;;;4.95;1.88;;;;;;;19.05;76.49;100332.22;4869821;29;20032;-75
2022/07/24 08:24:38;;;;;;;5.47;1.60;;;;;;;19.16;76.55;100339.88;4877245;29;20037;-76
2022/07/24 08:27:03;;;;;;;3.22;1.65;;;;;;;19.18;76.12;100334.00;4890477;29;20025;-76
2022/07/24 08:29:29;;;;;;;3.50;1.60;;;;;;;19.24;75.68;100346.53;4847524;29;20495;-75
2022/07/24 08:31:54;;;;;;;4.78;1.90;;;;;;;19.05;76.62;100337.75;4874564;29;20056;-75
2022/07/24 08:34:24;;;;;;;3.92;1.67;;;;;;;19.00;76.86;100335.97;4892810;29;20043;-75
2022/07/24 08:36:50;;;;;;;5.18;1.90;;;;;;;19.04;76.82;100330.56;4874305;29;20028;-75
2022/07/24 08:39:16;;;;;;;7.93;2.28;;;;;;;18.98;76.72;100339.06;4887737;29;20082;-75
2022/07/24 08:41:43;;;;;;;8.27;2.25;;;;;;;18.86;76.97;100347.19;4865259;29;20453;-75
2022/07/24 08:44:09;;;;;;;4.53;2.17;;;;;;;18.85;77.14;100334.44;4869965;29;20047;-76
2022/07/24 08:46:40;;;;;;;5.90;2.40;;;;;;;18.87;77.47;100343.28;4888733;29;20069;-78
2022/07/24 08:49:10;;;;;;;3.45;1.90;;;;;;;18.74;77.30;100331.16;4890376;29;20043;-75
2022/07/24 08:51:38;;;;;;;6.47;2.78;;;;;;;18.73;77.32;100325.94;4887447;29;20028;-76
2022/07/24 08:54:04;;;;;;;5.30;2.30;;;;;;;18.78;77.32;100331.34;4876176;29;20112;-76
2022/07/24 08:56:30;;;;;;;3.40;2.03;;;;;;;18.92;76.45;100320.94;4864123;29;20060;-76
2022/07/24 08:58:55;;;;;;;12.27;2.75;;;;;;;18.97;75.99;100315.25;4870995;29;20555;-76
2022/07/24 09:01:22;;;;;;;5.70;2.33;;;;;;;18.98;76.60;100319.66;4876712;29;20036;-75
2022/07/24 09:03:47;;;;;;;5.57;2.25;;;;;;;19.06;76.11;100320.00;4889952;29;20024;-76
2022/07/24 09:06:14;;;;;;;8.95;2.40;;;;;;;19.27;75.45;100326.47;4890061;29;20396;-77
2022/07/24 09:08:59;;;;;;;7.03;2.50;;;;;;;19.40;74.29;100326.66;4897507;29;20035;-76
2022/07/24 09:11:25;;;;;;;10.00;2.40;;;;;;;19.48;73.94;100314.75;4893243;29;20116;-75
2022/07/24 09:16:36;;;;;;;3.47;2.15;;;;;;;19.74;72.52;100313.84;4894459;29;20035;-76
2022/07/24 09:19:10;;;;;;;7.57;2.30;;;;;;;19.86;72.14;100305.69;4871885;29;20037;-76
2022/07/24 09:21:41;;;;;;;5.70;2.40;;;;;;;19.92;71.99;100315.47;4857340;29;20089;-75
2022/07/24 09:24:20;;;;;;;5.30;2.17;;;;;;;19.88;71.34;100306.16;4886105;29;20861;-76
2022/07/24 09:26:51;;;;;;;5.25;2.08;;;;;;;20.00;71.39;100299.91;4879604;29;20154;-75
2022/07/24 09:29:18;;;;;;;6.38;2.28;;;;;;;20.23;70.69;100311.56;4882636;29;20032;-76
2022/07/24 09:32:01;;;;;;;4.60;1.77;;;;;;;20.63;68.35;100311.16;4879272;29;20044;-76
2022/07/24 09:34:38;;;;;;;4.65;1.58;;;;;;;20.97;67.07;100309.34;4871937;29;20530;-76
2022/07/24 09:37:06;;;;;;;8.55;1.85;;;;;;;21.22;65.86;100299.13;4889778;29;20052;-75
2022/07/24 09:39:35;;;;;;;6.40;2.33;;;;;;;21.55;64.56;100308.66;4876134;29;20041;-75
2022/07/24 09:42:03;;;;;;;3.35;1.63;;;;;;;21.87;63.73;100295.06;4891353;29;20082;-77
2022/07/24 09:44:30;;;;;;;7.45;1.73;;;;;;;22.35;61.99;100312.16;4881127;29;20044;-74
2022/07/24 09:47:10;;;;;;;4.28;1.77;;;;;;;22.31;61.53;100292.50;4890354;29;20064;-75
2022/07/24 09:49:36;;;;;;;3.38;1.45;;;;;;;22.26;62.06;100303.91;4867971;29;20429;-74
2022/07/24 09:52:05;;;;;;;7.63;1.80;;;;;;;22.16;62.08;100309.94;4873583;29;20040;-75
2022/07/24 09:54:32;;;;;;;2.67;1.65;;;;;;;22.18;62.62;100302.03;4891084;29;20056;-74
2022/07/24 09:57:17;;;;;;;3.30;1.40;;;;;;;21.79;63.02;100308.72;4879512;29;20072;-75
2022/07/24 09:59:47;;;;;;;5.55;1.60;;;;;;;21.60;63.86;100314.03;4879730;29;20025;-75
2022/07/24 10:02:24;;;;;;;5.72;1.45;;;;;;;21.56;64.15;100301.94;4872885;29;20032;-75
2022/07/24 10:04:51;;;;;;;3.17;1.40;;;;;;;21.65;64.20;100310.19;4895802;29;20036;-75
2022/07/24 10:07:19;;;;;;;10.95;2.03;;;;;;;21.54;64.50;100320.97;4879253;29;20550;-74
2022/07/24 10:09:51;;;;;;;4.70;1.77;;;;;;;21.57;64.47;100307.16;4877976;29;20447;-76
2022/07/24 10:12:22;;;;;;;8.20;1.90;;;;;;;21.59;64.71;100306.81;4894283;29;20061;-75
2022/07/24 10:14:51;;;;;;;5.65;1.75;;;;;;;21.22;65.65;100312.25;4891919;29;20056;-76
2022/07/24 10:17:17;;;;;;;4.38;1.75;;;;;;;21.16;66.16;100316.34;4885437;29;20036;-76
2022/07/24 10:19:47;;;;;;;7.13;1.77;;;;;;;21.18;66.15;100341.88;4885095;29;20033;-74
2022/07/24 10:22:18;;;;;;;4.97;1.90;;;;;;;20.90;66.51;100320.97;4884262;29;20028;-75
2022/07/24 10:25:08;;;;;;;5.20;1.92;;;;;;;20.79;67.60;100307.84;4878191;29;20036;-74
2022/07/24 10:27:36;;;;;;;4.20;1.67;;;;;;;20.71;67.81;100301.19;4886870;29;20032;-74
2022/07/24 10:30:08;;;;;;;6.70;1.80;;;;;;;20.61;68.10;100307.91;4876548;29;20067;-76
2022/07/24 10:32:36;;;;;;;9.27;1.83;;;;;;;20.19;69.41;100302.28;4870341;29;20056;-74
2022/07/24 10:35:08;;;;;;;8.07;1.70;;;;;;;20.18;70.32;100297.88;4860562;29;20294;-76
2022/07/24 10:38:02;;;;;;;4.75;1.90;;;;;;;20.25;69.71;100303.72;4878018;29;20067;-75
2022/07/24 10:40:39;;;;;;;11.23;2.20;;;;;;;20.20;70.01;100303.91;4885299;29;20024;-77
2022/07/24 10:43:10;;;;;;;9.65;2.20;;;;;;;20.05;70.65;100308.88;4893063;29;20040;-74
2022/07/24 10:46:06;;;;;;;9.15;2.35;;;;;;;19.94;71.26;100296.50;4880408;29;20033;-75
2022/07/24 10:48:36;;;;;;;2.72;1.50;;;;;;;20.11;71.40;100294.81;4895666;29;20029;-75
2022/07/24 10:51:10;;;;;;;6.28;1.63;;;;;;;20.18;71.00;100286.75;4889322;29;20024;-76
2022/07/24 10:53:39;;;;;;;3.05;1.75;;;;;;;20.35;70.47;100294.19;4876761;29;20024;-75
2022/07/24 10:56:24;;;;;;;7.03;1.95;;;;;;;20.37;69.75;100291.88;4885597;29;20052;-75
2022/07/24 10:58:57;;;;;;;5.85;2.03;;;;;;;20.33;70.27;100286.19;4901207;29;20084;-75
2022/07/24 11:01:44;;;;;;;5.32;1.85;;;;;;;20.38;70.29;100285.19;4881497;29;20020;-75
2022/07/24 11:04:24;;;;;;;5.18;1.90;;;;;;;20.57;69.49;100279.19;4872405;29;20046;-74
2022/07/24 11:06:53;;;;;;;4.70;1.98;;;;;;;20.70;69.04;100294.00;4876161;29;20087;-76
2022/07/24 11:09:20;;;;;;;3.60;1.80;;;;;;;20.59;69.09;100293.56;4902194;29;20091;-77
2022/07/24 11:11:52;;;;;;;8.07;2.05;;;;;;;20.57;69.35;100298.63;4883052;29;20033;-75
2022/07/24 11:14:22;;;;;;;3.78;1.65;;;;;;;20.55;69.32;100287.06;4897167;29;20029;-77
2022/07/24 11:16:50;;;;;;;10.35;1.77;;;;;;;20.51;69.39;100286.09;4876778;29;20029;-77
2022/07/24 11:19:16;;;;;;;11.40;1.98;;;;;;;20.65;69.18;100286.66;4871667;29;20124;-75
2022/07/24 11:21:46;;;;;;;8.23;1.77;;;;;;;21.09;68.06;100284.38;4887413;29;20457;-75
2022/07/24 11:24:21;;;;;;;12.60;2.20;;;;;;;21.32;66.85;100286.78;4883197;29;20060;-74
2022/07/24 11:26:57;;;;;;;7.78;3.00;;;;;;;21.38;66.50;100279.84;4888212;29;20009;-75